sensor_id;sensor_type;location;lat;lon;timestamp;P1;durP1;ratioP1;P2;durP2;ratioP2
5646;SDS011;2845;48.626;9.362;2022-07-04T00:06:15;3.55;;;1.30;;
5646;SDS011;2845;48.626;9.362;2022-07-04T00:12:45;3.00;;;1.75;;
5646;SDS011;2845;48.626;9.362;2022-07-04T00:19:19;4.15;;;1.45;;
5646;SDS011;2845;48.626;9.362;2022-07-04T00:24:33;2.22;;;1.23;;
5646;SDS011;2845;48.626;9.362;2022-07-04T00:27:02;3.87;;;1.50;;
5646;SDS011;2845;48.626;9.362;2022-07-04T00:29:34;3.25;;;1.30;;
5646;SDS011;2845;48.626;9.362;2022-07-04T00:32:03;2.58;;;1.33;;
5646;SDS011;2845;48.626;9.362;2022-07-04T00:37:02;4.85;;;1.45;;
5646;SDS011;2845;48.626;9.362;2022-07-04T00:43:58;2.05;;;1.40;;
5646;SDS011;2845;48.626;9.362;2022-07-04T00:46:38;2.78;;;1.23;;
5646;SDS011;2845;48.626;9.362;2022-07-04T00:49:08;4.32;;;1.63;;
5646;SDS011;2845;48.626;9.362;2022-07-04T00:51:45;3.25;;;1.40;;
5646;SDS011;2845;48.626;9.362;2022-07-04T00:54:25;3.50;;;1.20;;
5646;SDS011;2845;48.626;9.362;2022-07-04T00:56:58;6.70;;;1.90;;
5646;SDS011;2845;48.626;9.362;2022-07-04T00:59:28;2.22;;;1.30;;
5646;SDS011;2845;48.626;9.362;2022-07-04T01:02:02;2.75;;;1.42;;
5646;SDS011;2845;48.626;9.362;2022-07-04T01:04:34;2.55;;;1.23;;
5646;SDS011;2845;48.626;9.362;2022-07-04T01:07:04;2.92;;;1.52;;
5646;SDS011;2845;48.626;9.362;2022-07-04T01:09:40;2.55;;;1.40;;
5646;SDS011;2845;48.626;9.362;2022-07-04T01:12:24;1.92;;;1.30;;
5646;SDS011;2845;48.626;9.362;2022-07-04T01:14:57;3.67;;;1.50;;
5646;SDS011;2845;48.626;9.362;2022-07-04T01:17:26;2.80;;;1.50;;
5646;SDS011;2845;48.626;9.362;2022-07-04T01:19:55;4.93;;;1.52;;
5646;SDS011;2845;48.626;9.362;2022-07-04T01:22:31;2.03;;;1.17;;
5646;SDS011;2845;48.626;9.362;2022-07-04T01:25:00;1.52;;;1.08;;
5646;SDS011;2845;48.626;9.362;2022-07-04T01:27:29;3.03;;;1.30;;
5646;SDS011;2845;48.626;9.362;2022-07-04T01:30:00;3.20;;;1.13;;
5646;SDS011;2845;48.626;9.362;2022-07-04T01:32:32;3.08;;;1.35;;
5646;SDS011;2845;48.626;9.362;2022-07-04T01:35:08;4.13;;;1.38;;
5646;SDS011;2845;48.626;9.362;2022-07-04T01:37:39;4.50;;;1.35;;
5646;SDS011;2845;48.626;9.362;2022-07-04T01:40:09;3.47;;;1.30;;
5646;SDS011;2845;48.626;9.362;2022-07-04T01:42:40;4.00;;;1.58;;
5646;SDS011;2845;48.626;9.362;2022-07-04T01:45:10;2.58;;;1.38;;
5646;SDS011;2845;48.626;9.362;2022-07-04T01:47:40;2.78;;;1.30;;
5646;SDS011;2845;48.626;9.362;2022-07-04T01:50:13;2.58;;;1.30;;
5646;SDS011;2845;48.626;9.362;2022-07-04T01:52:46;3.83;;;1.50;;
5646;SDS011;2845;48.626;9.362;2022-07-04T01:59:22;3.08;;;1.30;;
5646;SDS011;2845;48.626;9.362;2022-07-04T02:02:10;3.05;;;1.20;;
5646;SDS011;2845;48.626;9.362;2022-07-04T02:04:37;3.08;;;1.88;;
5646;SDS011;2845;48.626;9.362;2022-07-04T02:07:07;3.88;;;1.40;;
5646;SDS011;2845;48.626;9.362;2022-07-04T02:13:56;2.30;;;1.20;;
5646;SDS011;2845;48.626;9.362;2022-07-04T02:20:35;3.40;;;1.30;;
5646;SDS011;2845;48.626;9.362;2022-07-04T02:23:05;3.78;;;1.60;;
5646;SDS011;2845;48.626;9.362;2022-07-04T02:29:44;2.00;;;1.30;;
5646;SDS011;2845;48.626;9.362;2022-07-04T02:36:19;2.88;;;1.30;;
5646;SDS011;2845;48.626;9.362;2022-07-04T02:38:50;2.35;;;1.10;;
5646;SDS011;2845;48.626;9.362;2022-07-04T02:45:29;5.05;;;1.65;;
5646;SDS011;2845;48.626;9.362;2022-07-04T02:52:04;4.18;;;1.48;;
5646;SDS011;2845;48.626;9.362;2022-07-04T02:54:34;1.92;;;1.40;;
5646;SDS011;2845;48.626;9.362;2022-07-04T02:57:03;4.32;;;1.42;;
5646;SDS011;2845;48.626;9.362;2022-07-04T02:59:32;2.42;;;1.30;;
5646;SDS011;2845;48.626;9.362;2022-07-04T03:02:04;4.00;;;1.30;;
5646;SDS011;2845;48.626;9.362;2022-07-04T03:04:38;4.15;;;1.25;;
5646;SDS011;2845;48.626;9.362;2022-07-04T03:07:08;3.63;;;1.40;;
5646;SDS011;2845;48.626;9.362;2022-07-04T03:09:37;3.38;;;1.27;;
5646;SDS011;2845;48.626;9.362;2022-07-04T03:12:06;2.88;;;1.30;;
5646;SDS011;2845;48.626;9.362;2022-07-04T03:14:36;2.00;;;1.05;;
5646;SDS011;2845;48.626;9.362;2022-07-04T03:17:06;4.07;;;1.58;;
5646;SDS011;2845;48.626;9.362;2022-07-04T03:19:35;2.80;;;1.55;;
5646;SDS011;2845;48.626;9.362;2022-07-04T03:22:04;3.72;;;1.42;;
5646;SDS011;2845;48.626;9.362;2022-07-04T03:27:26;5.45;;;1.92;;
5646;SDS011;2845;48.626;9.362;2022-07-04T03:29:56;3.65;;;1.65;;
5646;SDS011;2845;48.626;9.362;2022-07-04T03:32:28;4.97;;;1.60;;
5646;SDS011;2845;48.626;9.362;2022-07-04T03:35:03;3.55;;;1.50;;
5646;SDS011;2845;48.626;9.362;2022-07-04T03:37:32;3.85;;;1.60;;
5646;SDS011;2845;48.626;9.362;2022-07-04T03:44:08;4.00;;;1.30;;
5646;SDS011;2845;48.626;9.362;2022-07-04T03:50:27;3.58;;;1.30;;
5646;SDS011;2845;48.626;9.362;2022-07-04T03:56:56;2.00;;;1.38;;
5646;SDS011;2845;48.626;9.362;2022-07-04T03:59:26;2.72;;;1.50;;
5646;SDS011;2845;48.626;9.362;2022-07-04T04:01:55;2.50;;;1.40;;
5646;SDS011;2845;48.626;9.362;2022-07-04T04:04:27;4.47;;;1.63;;
5646;SDS011;2845;48.626;9.362;2022-07-04T04:07:16;4.65;;;1.60;;
5646;SDS011;2845;48.626;9.362;2022-07-04T04:09:45;3.15;;;1.58;;
5646;SDS011;2845;48.626;9.362;2022-07-04T04:16:21;2.72;;;1.50;;
5646;SDS011;2845;48.626;9.362;2022-07-04T04:26:50;3.30;;;1.55;;
5646;SDS011;2845;48.626;9.362;2022-07-04T04:29:19;2.78;;;1.67;;
5646;SDS011;2845;48.626;9.362;2022-07-04T04:31:48;5.70;;;1.45;;
5646;SDS011;2845;48.626;9.362;2022-07-04T04:34:17;3.38;;;1.50;;
5646;SDS011;2845;48.626;9.362;2022-07-04T04:36:46;4.25;;;1.73;;
5646;SDS011;2845;48.626;9.362;2022-07-04T04:39:14;3.63;;;1.90;;
5646;SDS011;2845;48.626;9.362;2022-07-04T04:41:44;3.92;;;2.15;;
5646;SDS011;2845;48.626;9.362;2022-07-04T04:44:16;3.75;;;1.60;;
5646;SDS011;2845;48.626;9.362;2022-07-04T04:46:46;3.38;;;1.50;;
5646;SDS011;2845;48.626;9.362;2022-07-04T04:49:14;3.08;;;1.70;;
5646;SDS011;2845;48.626;9.362;2022-07-04T04:51:51;3.63;;;1.77;;
5646;SDS011;2845;48.626;9.362;2022-07-04T04:54:20;4.30;;;1.75;;
5646;SDS011;2845;48.626;9.362;2022-07-04T05:27:57;5.75;;;2.10;;
5646;SDS011;2845;48.626;9.362;2022-07-04T05:30:45;5.18;;;1.75;;
5646;SDS011;2845;48.626;9.362;2022-07-04T05:36:43;4.80;;;1.90;;
5646;SDS011;2845;48.626;9.362;2022-07-04T05:39:27;3.38;;;1.88;;
5646;SDS011;2845;48.626;9.362;2022-07-04T05:46:10;4.28;;;1.45;;
5646;SDS011;2845;48.626;9.362;2022-07-04T05:57:36;4.88;;;1.55;;
5646;SDS011;2845;48.626;9.362;2022-07-04T06:00:11;5.47;;;1.50;;
5646;SDS011;2845;48.626;9.362;2022-07-04T06:02:41;3.17;;;1.45;;
5646;SDS011;2845;48.626;9.362;2022-07-04T06:05:10;4.43;;;1.75;;
5646;SDS011;2845;48.626;9.362;2022-07-04T06:07:40;5.15;;;1.67;;
5646;SDS011;2845;48.626;9.362;2022-07-04T06:10:09;4.03;;;1.65;;
5646;SDS011;2845;48.626;9.362;2022-07-04T06:15:11;7.15;;;1.80;;
5646;SDS011;2845;48.626;9.362;2022-07-04T06:17:51;5.28;;;1.70;;
5646;SDS011;2845;48.626;9.362;2022-07-04T06:20:33;5.53;;;2.03;;
5646;SDS011;2845;48.626;9.362;2022-07-04T06:23:02;5.47;;;1.70;;
5646;SDS011;2845;48.626;9.362;2022-07-04T06:25:30;4.30;;;1.70;;
5646;SDS011;2845;48.626;9.362;2022-07-04T06:28:03;5.70;;;1.35;;
5646;SDS011;2845;48.626;9.362;2022-07-04T06:30:50;3.80;;;1.48;;
5646;SDS011;2845;48.626;9.362;2022-07-04T06:33:19;4.10;;;1.70;;
5646;SDS011;2845;48.626;9.362;2022-07-04T06:35:57;3.67;;;1.70;;
5646;SDS011;2845;48.626;9.362;2022-07-04T06:38:26;2.40;;;1.45;;
5646;SDS011;2845;48.626;9.362;2022-07-04T06:40:57;6.40;;;1.55;;
5646;SDS011;2845;48.626;9.362;2022-07-04T06:47:29;3.75;;;1.60;;
5646;SDS011;2845;48.626;9.362;2022-07-04T06:54:06;3.45;;;1.50;;
5646;SDS011;2845;48.626;9.362;2022-07-04T07:00:41;3.28;;;1.52;;
5646;SDS011;2845;48.626;9.362;2022-07-04T07:07:11;3.55;;;1.60;;
5646;SDS011;2845;48.626;9.362;2022-07-04T07:13:48;6.22;;;1.75;;
5646;SDS011;2845;48.626;9.362;2022-07-04T07:23:54;5.40;;;1.67;;
5646;SDS011;2845;48.626;9.362;2022-07-04T07:30:31;4.05;;;1.50;;
5646;SDS011;2845;48.626;9.362;2022-07-04T07:33:02;3.97;;;1.55;;
5646;SDS011;2845;48.626;9.362;2022-07-04T07:35:31;3.97;;;1.73;;
5646;SDS011;2845;48.626;9.362;2022-07-04T07:38:00;4.78;;;1.95;;
5646;SDS011;2845;48.626;9.362;2022-07-04T07:40:41;5.07;;;1.90;;
5646;SDS011;2845;48.626;9.362;2022-07-04T07:47:09;3.55;;;1.70;;
5646;SDS011;2845;48.626;9.362;2022-07-04T07:53:48;3.75;;;1.67;;
5646;SDS011;2845;48.626;9.362;2022-07-04T08:00:49;3.38;;;1.63;;
5646;SDS011;2845;48.626;9.362;2022-07-04T08:07:21;3.13;;;1.77;;
5646;SDS011;2845;48.626;9.362;2022-07-04T08:09:51;3.40;;;1.58;;
5646;SDS011;2845;48.626;9.362;2022-07-04T08:18:22;3.38;;;1.60;;
5646;SDS011;2845;48.626;9.362;2022-07-04T08:35:03;3.15;;;2.03;;
5646;SDS011;2845;48.626;9.362;2022-07-04T08:41:23;6.80;;;2.08;;
5646;SDS011;2845;48.626;9.362;2022-07-04T08:48:34;5.88;;;2.20;;
5646;SDS011;2845;48.626;9.362;2022-07-04T08:55:18;4.20;;;2.10;;
5646;SDS011;2845;48.626;9.362;2022-07-04T09:06:03;3.15;;;1.80;;
5646;SDS011;2845;48.626;9.362;2022-07-04T09:08:45;4.32;;;1.90;;
5646;SDS011;2845;48.626;9.362;2022-07-04T09:11:16;3.33;;;1.77;;
5646;SDS011;2845;48.626;9.362;2022-07-04T09:13:57;4.45;;;1.70;;
5646;SDS011;2845;48.626;9.362;2022-07-04T09:20:33;3.70;;;1.90;;
5646;SDS011;2845;48.626;9.362;2022-07-04T09:27:32;3.67;;;2.15;;
5646;SDS011;2845;48.626;9.362;2022-07-04T09:34:09;6.00;;;2.55;;
5646;SDS011;2845;48.626;9.362;2022-07-04T09:45:03;5.88;;;2.38;;
5646;SDS011;2845;48.626;9.362;2022-07-04T09:51:42;4.05;;;2.03;;
5646;SDS011;2845;48.626;9.362;2022-07-04T09:58:20;9.38;;;2.60;;
5646;SDS011;2845;48.626;9.362;2022-07-04T10:00:58;7.07;;;2.60;;
5646;SDS011;2845;48.626;9.362;2022-07-04T10:03:45;7.05;;;2.58;;
5646;SDS011;2845;48.626;9.362;2022-07-04T10:06:21;8.05;;;3.03;;
5646;SDS011;2845;48.626;9.362;2022-07-04T10:08:53;8.15;;;2.85;;
5646;SDS011;2845;48.626;9.362;2022-07-04T10:11:35;5.10;;;2.40;;
5646;SDS011;2845;48.626;9.362;2022-07-04T10:21:13;5.20;;;2.30;;
5646;SDS011;2845;48.626;9.362;2022-07-04T10:27:50;6.80;;;2.60;;
5646;SDS011;2845;48.626;9.362;2022-07-04T10:34:38;5.35;;;2.20;;
5646;SDS011;2845;48.626;9.362;2022-07-04T10:41:17;5.75;;;2.55;;
5646;SDS011;2845;48.626;9.362;2022-07-04T10:51:40;7.15;;;2.20;;
5646;SDS011;2845;48.626;9.362;2022-07-04T10:54:15;4.20;;;2.20;;
5646;SDS011;2845;48.626;9.362;2022-07-04T10:56:51;7.07;;;2.20;;
5646;SDS011;2845;48.626;9.362;2022-07-04T10:59:33;5.13;;;1.92;;
5646;SDS011;2845;48.626;9.362;2022-07-04T11:06:15;5.03;;;1.75;;
5646;SDS011;2845;48.626;9.362;2022-07-04T11:16:56;4.55;;;1.95;;
5646;SDS011;2845;48.626;9.362;2022-07-04T11:22:27;4.70;;;1.80;;
5646;SDS011;2845;48.626;9.362;2022-07-04T11:24:57;4.07;;;1.60;;
5646;SDS011;2845;48.626;9.362;2022-07-04T11:27:25;5.38;;;1.98;;
5646;SDS011;2845;48.626;9.362;2022-07-04T11:30:10;5.35;;;1.60;;
5646;SDS011;2845;48.626;9.362;2022-07-04T11:35:59;5.22;;;1.90;;
5646;SDS011;2845;48.626;9.362;2022-07-04T11:38:46;2.65;;;1.40;;
5646;SDS011;2845;48.626;9.362;2022-07-04T11:41:28;4.30;;;1.50;;
5646;SDS011;2845;48.626;9.362;2022-07-04T11:48:24;4.15;;;1.60;;
5646;SDS011;2845;48.626;9.362;2022-07-04T11:50:57;5.35;;;1.50;;
5646;SDS011;2845;48.626;9.362;2022-07-04T11:53:26;4.53;;;1.70;;
5646;SDS011;2845;48.626;9.362;2022-07-04T11:55:57;4.88;;;1.83;;
5646;SDS011;2845;48.626;9.362;2022-07-04T11:58:39;2.47;;;1.42;;
5646;SDS011;2845;48.626;9.362;2022-07-04T12:01:08;3.53;;;1.60;;
5646;SDS011;2845;48.626;9.362;2022-07-04T12:06:57;3.70;;;1.63;;
5646;SDS011;2845;48.626;9.362;2022-07-04T12:09:39;3.85;;;1.80;;
5646;SDS011;2845;48.626;9.362;2022-07-04T12:12:15;4.43;;;1.95;;
5646;SDS011;2845;48.626;9.362;2022-07-04T12:17:36;2.92;;;1.92;;
5646;SDS011;2845;48.626;9.362;2022-07-04T12:20:26;6.63;;;1.80;;
5646;SDS011;2845;48.626;9.362;2022-07-04T12:23:03;3.70;;;1.60;;
5646;SDS011;2845;48.626;9.362;2022-07-04T12:25:32;3.15;;;1.73;;
5646;SDS011;2845;48.626;9.362;2022-07-04T12:28:16;4.32;;;1.77;;
5646;SDS011;2845;48.626;9.362;2022-07-04T12:30:53;2.22;;;1.73;;
5646;SDS011;2845;48.626;9.362;2022-07-04T12:33:24;4.13;;;1.80;;
5646;SDS011;2845;48.626;9.362;2022-07-04T12:36:06;3.45;;;1.70;;
5646;SDS011;2845;48.626;9.362;2022-07-04T12:38:39;2.95;;;1.67;;
5646;SDS011;2845;48.626;9.362;2022-07-04T12:52:48;3.70;;;1.65;;
5646;SDS011;2845;48.626;9.362;2022-07-04T13:06:29;3.72;;;2.00;;
5646;SDS011;2845;48.626;9.362;2022-07-04T13:16:34;5.47;;;1.88;;
5646;SDS011;2845;48.626;9.362;2022-07-04T13:19:33;6.28;;;1.83;;
5646;SDS011;2845;48.626;9.362;2022-07-04T13:22:03;5.30;;;1.83;;
5646;SDS011;2845;48.626;9.362;2022-07-04T13:27:23;5.50;;;2.15;;
5646;SDS011;2845;48.626;9.362;2022-07-04T13:29:57;2.80;;;1.73;;
5646;SDS011;2845;48.626;9.362;2022-07-04T13:39:20;2.60;;;1.70;;
5646;SDS011;2845;48.626;9.362;2022-07-04T13:53:27;2.72;;;2.00;;
5646;SDS011;2845;48.626;9.362;2022-07-04T13:59:14;4.03;;;2.45;;
5646;SDS011;2845;48.626;9.362;2022-07-04T14:01:43;3.55;;;1.90;;
5646;SDS011;2845;48.626;9.362;2022-07-04T14:04:21;3.25;;;1.70;;
5646;SDS011;2845;48.626;9.362;2022-07-04T14:06:54;4.63;;;2.17;;
5646;SDS011;2845;48.626;9.362;2022-07-04T14:09:27;9.00;;;2.47;;
5646;SDS011;2845;48.626;9.362;2022-07-04T14:12:03;2.97;;;2.20;;
5646;SDS011;2845;48.626;9.362;2022-07-04T14:14:45;4.63;;;2.10;;
5646;SDS011;2845;48.626;9.362;2022-07-04T14:17:14;5.38;;;2.10;;
5646;SDS011;2845;48.626;9.362;2022-07-04T14:24:11;5.85;;;2.33;;
5646;SDS011;2845;48.626;9.362;2022-07-04T14:30:57;4.43;;;2.17;;
5646;SDS011;2845;48.626;9.362;2022-07-04T14:36:34;4.13;;;2.17;;
5646;SDS011;2845;48.626;9.362;2022-07-04T14:39:03;4.03;;;2.17;;
5646;SDS011;2845;48.626;9.362;2022-07-04T14:44:22;3.97;;;2.58;;
5646;SDS011;2845;48.626;9.362;2022-07-04T14:46:51;5.43;;;2.03;;
5646;SDS011;2845;48.626;9.362;2022-07-04T14:49:20;4.47;;;2.20;;
5646;SDS011;2845;48.626;9.362;2022-07-04T14:51:48;3.63;;;1.90;;
5646;SDS011;2845;48.626;9.362;2022-07-04T14:54:19;5.18;;;1.88;;
5646;SDS011;2845;48.626;9.362;2022-07-04T14:56:48;9.73;;;2.08;;
5646;SDS011;2845;48.626;9.362;2022-07-04T14:59:22;3.10;;;1.95;;
5646;SDS011;2845;48.626;9.362;2022-07-04T15:02:03;4.93;;;1.90;;
5646;SDS011;2845;48.626;9.362;2022-07-04T15:04:33;2.97;;;2.00;;
5646;SDS011;2845;48.626;9.362;2022-07-04T15:07:03;4.20;;;2.10;;
5646;SDS011;2845;48.626;9.362;2022-07-04T15:09:39;4.28;;;1.98;;
5646;SDS011;2845;48.626;9.362;2022-07-04T15:24:20;5.10;;;1.95;;
5646;SDS011;2845;48.626;9.362;2022-07-04T15:26:49;4.55;;;1.95;;
5646;SDS011;2845;48.626;9.362;2022-07-04T15:29:27;3.35;;;1.80;;
5646;SDS011;2845;48.626;9.362;2022-07-04T15:32:09;4.95;;;1.85;;
5646;SDS011;2845;48.626;9.362;2022-07-04T15:34:39;5.47;;;1.85;;
5646;SDS011;2845;48.626;9.362;2022-07-04T15:49:20;3.92;;;1.63;;
5646;SDS011;2845;48.626;9.362;2022-07-04T15:51:51;3.60;;;1.50;;
5646;SDS011;2845;48.626;9.362;2022-07-04T15:54:21;4.28;;;1.65;;
5646;SDS011;2845;48.626;9.362;2022-07-04T15:59:21;3.85;;;1.60;;
5646;SDS011;2845;48.626;9.362;2022-07-04T16:01:52;3.67;;;1.70;;
5646;SDS011;2845;48.626;9.362;2022-07-04T16:04:26;3.35;;;1.50;;
5646;SDS011;2845;48.626;9.362;2022-07-04T16:09:45;3.63;;;1.83;;
5646;SDS011;2845;48.626;9.362;2022-07-04T16:12:16;3.15;;;1.90;;
5646;SDS011;2845;48.626;9.362;2022-07-04T16:14:51;5.55;;;1.80;;
5646;SDS011;2845;48.626;9.362;2022-07-04T16:17:21;7.10;;;1.70;;
5646;SDS011;2845;48.626;9.362;2022-07-04T16:19:57;2.13;;;1.45;;
5646;SDS011;2845;48.626;9.362;2022-07-04T16:22:57;3.00;;;1.63;;
5646;SDS011;2845;48.626;9.362;2022-07-04T16:25:33;3.70;;;1.88;;
5646;SDS011;2845;48.626;9.362;2022-07-04T16:28:27;3.85;;;1.80;;
5646;SDS011;2845;48.626;9.362;2022-07-04T16:31:15;3.72;;;1.70;;
5646;SDS011;2845;48.626;9.362;2022-07-04T16:33:59;2.53;;;1.65;;
5646;SDS011;2845;48.626;9.362;2022-07-04T16:48:55;2.60;;;1.60;;
5646;SDS011;2845;48.626;9.362;2022-07-04T16:55:44;6.57;;;1.60;;
5646;SDS011;2845;48.626;9.362;2022-07-04T17:09:03;5.10;;;1.95;;
5646;SDS011;2845;48.626;9.362;2022-07-04T17:11:49;3.30;;;1.70;;
5646;SDS011;2845;48.626;9.362;2022-07-04T17:14:45;7.25;;;2.20;;
5646;SDS011;2845;48.626;9.362;2022-07-04T17:17:33;4.05;;;2.08;;
5646;SDS011;2845;48.626;9.362;2022-07-04T17:20:06;7.45;;;2.20;;
5646;SDS011;2845;48.626;9.362;2022-07-04T17:53:33;5.70;;;3.20;;
5646;SDS011;2845;48.626;9.362;2022-07-04T17:56:02;2.33;;;1.73;;
5646;SDS011;2845;48.626;9.362;2022-07-04T17:58:36;2.40;;;1.77;;
5646;SDS011;2845;48.626;9.362;2022-07-04T18:01:09;3.92;;;1.58;;
5646;SDS011;2845;48.626;9.362;2022-07-04T18:03:40;2.70;;;1.52;;
5646;SDS011;2845;48.626;9.362;2022-07-04T18:06:09;2.55;;;1.40;;
5646;SDS011;2845;48.626;9.362;2022-07-04T18:08:51;2.83;;;1.40;;
5646;SDS011;2845;48.626;9.362;2022-07-04T18:11:25;3.90;;;1.60;;
5646;SDS011;2845;48.626;9.362;2022-07-04T18:14:09;3.30;;;1.33;;
5646;SDS011;2845;48.626;9.362;2022-07-04T18:16:55;3.13;;;1.45;;
5646;SDS011;2845;48.626;9.362;2022-07-04T18:22:26;4.90;;;1.50;;
5646;SDS011;2845;48.626;9.362;2022-07-04T18:29:03;2.65;;;1.40;;
5646;SDS011;2845;48.626;9.362;2022-07-04T18:42:21;3.85;;;1.58;;
5646;SDS011;2845;48.626;9.362;2022-07-04T18:45:09;2.92;;;1.58;;
5646;SDS011;2845;48.626;9.362;2022-07-04T18:47:41;2.60;;;1.50;;
5646;SDS011;2845;48.626;9.362;2022-07-04T18:50:27;2.47;;;1.58;;
5646;SDS011;2845;48.626;9.362;2022-07-04T18:57:14;2.97;;;1.40;;
5646;SDS011;2845;48.626;9.362;2022-07-04T19:00:10;3.60;;;1.23;;
5646;SDS011;2845;48.626;9.362;2022-07-04T19:02:51;2.47;;;1.50;;
5646;SDS011;2845;48.626;9.362;2022-07-04T19:05:23;3.08;;;1.40;;
5646;SDS011;2845;48.626;9.362;2022-07-04T19:12:01;2.80;;;1.40;;
5646;SDS011;2845;48.626;9.362;2022-07-04T19:25:48;3.33;;;1.80;;
5646;SDS011;2845;48.626;9.362;2022-07-04T19:28:19;4.80;;;2.00;;
5646;SDS011;2845;48.626;9.362;2022-07-04T19:31:02;2.22;;;1.55;;
5646;SDS011;2845;48.626;9.362;2022-07-04T19:33:51;6.30;;;1.75;;
5646;SDS011;2845;48.626;9.362;2022-07-04T19:36:21;4.65;;;1.77;;
5646;SDS011;2845;48.626;9.362;2022-07-04T19:38:52;3.97;;;1.92;;
5646;SDS011;2845;48.626;9.362;2022-07-04T19:41:28;4.20;;;1.80;;
5646;SDS011;2845;48.626;9.362;2022-07-04T19:44:03;5.03;;;1.90;;
5646;SDS011;2845;48.626;9.362;2022-07-04T19:46:45;5.68;;;1.70;;
5646;SDS011;2845;48.626;9.362;2022-07-04T19:49:15;4.18;;;1.90;;
5646;SDS011;2845;48.626;9.362;2022-07-04T19:51:46;2.28;;;1.70;;
5646;SDS011;2845;48.626;9.362;2022-07-04T19:54:35;4.85;;;2.00;;
5646;SDS011;2845;48.626;9.362;2022-07-04T19:57:15;4.45;;;1.92;;
5646;SDS011;2845;48.626;9.362;2022-07-04T19:59:45;4.90;;;2.13;;
5646;SDS011;2845;48.626;9.362;2022-07-04T20:02:17;6.85;;;2.20;;
5646;SDS011;2845;48.626;9.362;2022-07-04T20:04:57;4.07;;;2.20;;
5646;SDS011;2845;48.626;9.362;2022-07-04T20:07:33;4.63;;;2.10;;
5646;SDS011;2845;48.626;9.362;2022-07-04T20:25:40;4.90;;;1.85;;
5646;SDS011;2845;48.626;9.362;2022-07-04T20:32:11;4.05;;;1.83;;
5646;SDS011;2845;48.626;9.362;2022-07-04T20:38:47;3.08;;;1.80;;
5646;SDS011;2845;48.626;9.362;2022-07-04T20:41:16;2.73;;;1.80;;
5646;SDS011;2845;48.626;9.362;2022-07-04T20:43:46;3.53;;;1.98;;
5646;SDS011;2845;48.626;9.362;2022-07-04T20:46:15;4.53;;;1.83;;
5646;SDS011;2845;48.626;9.362;2022-07-04T20:48:54;3.97;;;1.63;;
5646;SDS011;2845;48.626;9.362;2022-07-04T20:51:27;3.35;;;1.85;;
5646;SDS011;2845;48.626;9.362;2022-07-04T20:53:58;3.95;;;2.05;;
5646;SDS011;2845;48.626;9.362;2022-07-04T21:00:34;4.13;;;1.88;;
5646;SDS011;2845;48.626;9.362;2022-07-04T21:07:06;3.65;;;2.22;;
5646;SDS011;2845;48.626;9.362;2022-07-04T21:09:38;4.78;;;2.13;;
5646;SDS011;2845;48.626;9.362;2022-07-04T21:12:08;3.75;;;1.83;;
5646;SDS011;2845;48.626;9.362;2022-07-04T21:14:39;3.45;;;1.70;;
5646;SDS011;2845;48.626;9.362;2022-07-04T21:17:08;2.20;;;1.90;;
5646;SDS011;2845;48.626;9.362;2022-07-04T21:19:40;3.88;;;2.10;;
5646;SDS011;2845;48.626;9.362;2022-07-04T21:22:17;4.15;;;2.03;;
5646;SDS011;2845;48.626;9.362;2022-07-04T21:24:51;3.72;;;1.70;;
5646;SDS011;2845;48.626;9.362;2022-07-04T21:27:27;4.60;;;1.60;;
5646;SDS011;2845;48.626;9.362;2022-07-04T21:29:58;3.33;;;1.90;;
5646;SDS011;2845;48.626;9.362;2022-07-04T21:32:28;3.90;;;2.00;;
5646;SDS011;2845;48.626;9.362;2022-07-04T21:35:03;2.55;;;1.70;;
5646;SDS011;2845;48.626;9.362;2022-07-04T21:46:14;3.22;;;1.65;;
5646;SDS011;2845;48.626;9.362;2022-07-04T21:52:44;2.15;;;1.80;;
5646;SDS011;2845;48.626;9.362;2022-07-04T21:59:22;2.83;;;1.83;;
5646;SDS011;2845;48.626;9.362;2022-07-04T22:06:36;3.88;;;1.90;;
5646;SDS011;2845;48.626;9.362;2022-07-04T22:12:42;4.10;;;1.95;;
5646;SDS011;2845;48.626;9.362;2022-07-04T22:15:12;7.03;;;2.10;;
5646;SDS011;2845;48.626;9.362;2022-07-04T22:17:41;4.60;;;2.10;;
5646;SDS011;2845;48.626;9.362;2022-07-04T22:20:15;2.75;;;1.95;;
5646;SDS011;2845;48.626;9.362;2022-07-04T22:22:48;5.18;;;2.25;;
5646;SDS011;2845;48.626;9.362;2022-07-04T22:25:26;3.22;;;1.63;;
5646;SDS011;2845;48.626;9.362;2022-07-04T22:27:57;3.20;;;1.70;;
5646;SDS011;2845;48.626;9.362;2022-07-04T22:30:27;3.03;;;1.90;;
5646;SDS011;2845;48.626;9.362;2022-07-04T22:32:57;4.78;;;2.10;;
5646;SDS011;2845;48.626;9.362;2022-07-04T22:35:27;4.70;;;2.10;;
5646;SDS011;2845;48.626;9.362;2022-07-04T22:37:58;4.63;;;2.20;;
5646;SDS011;2845;48.626;9.362;2022-07-04T22:40:28;3.25;;;1.95;;
5646;SDS011;2845;48.626;9.362;2022-07-04T22:42:56;3.17;;;2.00;;
5646;SDS011;2845;48.626;9.362;2022-07-04T22:45:26;4.38;;;1.90;;
5646;SDS011;2845;48.626;9.362;2022-07-04T22:47:55;3.08;;;1.92;;
5646;SDS011;2845;48.626;9.362;2022-07-04T22:50:26;2.95;;;1.92;;
5646;SDS011;2845;48.626;9.362;2022-07-04T22:53:02;5.03;;;2.30;;
5646;SDS011;2845;48.626;9.362;2022-07-04T22:55:51;4.70;;;2.40;;
5646;SDS011;2845;48.626;9.362;2022-07-04T22:58:27;4.38;;;2.28;;
5646;SDS011;2845;48.626;9.362;2022-07-04T23:00:57;3.33;;;2.17;;
5646;SDS011;2845;48.626;9.362;2022-07-04T23:03:26;4.22;;;2.10;;
5646;SDS011;2845;48.626;9.362;2022-07-04T23:05:56;4.20;;;2.08;;
5646;SDS011;2845;48.626;9.362;2022-07-04T23:08:26;3.13;;;1.90;;
5646;SDS011;2845;48.626;9.362;2022-07-04T23:10:55;3.95;;;1.80;;
5646;SDS011;2845;48.626;9.362;2022-07-04T23:13:27;3.67;;;2.17;;
5646;SDS011;2845;48.626;9.362;2022-07-04T23:15:57;2.72;;;1.83;;
5646;SDS011;2845;48.626;9.362;2022-07-04T23:18:26;3.63;;;2.10;;
5646;SDS011;2845;48.626;9.362;2022-07-04T23:21:03;4.85;;;1.92;;
5646;SDS011;2845;48.626;9.362;2022-07-04T23:23:54;4.85;;;2.10;;
5646;SDS011;2845;48.626;9.362;2022-07-04T23:26:23;2.97;;;2.00;;
5646;SDS011;2845;48.626;9.362;2022-07-04T23:28:57;2.97;;;1.98;;
5646;SDS011;2845;48.626;9.362;2022-07-04T23:31:29;4.35;;;2.20;;
5646;SDS011;2845;48.626;9.362;2022-07-04T23:34:03;3.28;;;1.98;;
5646;SDS011;2845;48.626;9.362;2022-07-04T23:36:34;2.75;;;2.00;;
5646;SDS011;2845;48.626;9.362;2022-07-04T23:39:05;3.75;;;1.80;;
5646;SDS011;2845;48.626;9.362;2022-07-04T23:45:40;4.78;;;2.03;;
5646;SDS011;2845;48.626;9.362;2022-07-04T23:52:16;4.55;;;2.05;;
